Time;durP1;ratioP1;P1;durP2;ratioP2;P2;SDS_P1;SDS_P2;PMS_P1;PMS_P2;Temp;Humidity;BMP_temperature;BMP_pressure;BME280_temperature;BME280_humidity;BME280_pressure;Samples;Min_cycle;Max_cycle;Signal;HPM_P1;HPM_P2
2020/12/31 00:01:27;;;;;;;3.77;2.90;;;;;;;4.57;88.32;92082.13;1822310;77;21174;-77
2020/12/31 00:03:55;;;;;;;4.75;2.87;;;;;;;4.61;87.73;92082.89;1820179;78;21400;-76
2020/12/31 00:06:23;;;;;;;4.83;2.87;;;;;;;4.55;87.21;92080.42;1819819;78;21742;-77
2020/12/31 00:08:50;;;;;;;4.10;2.58;;;;;;;4.52;87.35;92090.62;1819387;78;21144;-78
2020/12/31 00:11:18;;;;;;;17.62;11.20;;;;;;;4.49;87.06;92093.32;1819831;78;21163;-77
2020/12/31 00:13:46;;;;;;;9.78;6.60;;;;;;;4.44;86.98;92103.12;1819921;78;21221;-78
2020/12/31 00:16:14;;;;;;;14.58;8.45;;;;;;;4.41;86.60;92109.30;1822263;78;21360;-78
2020/12/31 00:18:41;;;;;;;8.15;4.90;;;;;;;4.38;86.73;92118.33;1845127;77;21178;-80
2020/12/31 00:21:09;;;;;;;6.22;4.42;;;;;;;4.35;86.58;92112.95;1847216;77;21230;-77
2020/12/31 00:23:36;;;;;;;15.05;6.90;;;;;;;4.34;87.33;92114.11;1826161;77;21189;-77
2020/12/31 00:26:04;;;;;;;6.08;3.25;;;;;;;4.29;85.93;92118.55;1862040;77;21162;-77
2020/12/31 00:28:32;;;;;;;6.12;2.72;;;;;;;4.02;87.43;92104.14;1824189;77;21585;-78
2020/12/31 00:30:59;;;;;;;9.03;4.22;;;;;;;4.02;87.43;92104.14;1820964;78;21178;-77
2020/12/31 00:33:26;;;;;;;6.67;4.47;;;;;;;4.03;87.12;92101.66;1822327;78;21198;-78
2020/12/31 00:35:55;;;;;;;4.85;3.00;;;;;;;3.96;87.19;92110.31;1830117;77;21162;-77
2020/12/31 00:38:23;;;;;;;8.00;2.77;;;;;;;3.90;87.69;92107.22;1861874;77;21154;-78
2020/12/31 00:40:52;;;;;;;8.68;3.02;;;;;;;3.88;87.79;92104.92;1821885;77;21368;-78
2020/12/31 00:43:20;;;;;;;14.47;6.60;;;;;;;3.89;87.34;92115.11;1853239;77;21201;-77
2020/12/31 00:45:48;;;;;;;12.63;5.75;;;;;;;3.85;87.11;92124.52;1840268;77;21123;-77
2020/12/31 00:48:16;;;;;;;15.40;6.28;;;;;;;3.82;87.17;92119.90;1834907;77;21178;-78
2020/12/31 00:50:43;;;;;;;9.40;5.50;;;;;;;3.81;87.31;92124.33;1858179;77;21680;-78
2020/12/31 00:53:11;;;;;;;11.53;6.50;;;;;;;3.79;87.34;92117.97;1784364;78;21629;-77
2020/12/31 00:55:39;;;;;;;6.42;4.95;;;;;;;3.72;87.57;92116.62;1857139;77;21185;-78
2020/12/31 00:58:08;;;;;;;8.63;5.78;;;;;;;3.69;88.04;92117.98;1836617;77;21162;-77
2020/12/31 01:00:37;;;;;;;7.22;4.35;;;;;;;3.69;87.94;92122.02;1839873;77;21166;-77
2020/12/31 01:03:07;;;;;;;6.65;4.30;;;;;;;3.67;87.94;92122.97;1853607;77;21736;-77
2020/12/31 01:05:35;;;;;;;7.53;4.20;;;;;;;3.68;88.07;92128.53;1821656;78;22170;-78
2020/12/31 01:08:03;;;;;;;9.45;5.08;;;;;;;3.71;88.03;92123.73;1822564;78;21104;-77
2020/12/31 01:10:32;;;;;;;9.18;6.15;;;;;;;3.77;88.78;92128.94;1822517;78;21094;-81
2020/12/31 01:13:00;;;;;;;6.42;4.62;;;;;;;3.85;88.76;92127.20;1822483;78;21190;-77
2020/12/31 01:15:28;;;;;;;8.58;4.80;;;;;;;3.95;88.86;92133.75;1821965;77;21185;-79
2020/12/31 01:17:56;;;;;;;8.10;4.70;;;;;;;4.04;89.00;92132.77;1822058;78;21179;-78
2020/12/31 01:20:24;;;;;;;8.93;4.97;;;;;;;4.20;88.97;92143.72;1822008;78;21159;-77
2020/12/31 01:22:53;;;;;;;5.97;4.08;;;;;;;4.29;87.12;92149.50;1821850;78;21153;-78
2020/12/31 01:25:22;;;;;;;12.20;8.20;;;;;;;4.13;86.01;92141.22;1821055;78;21165;-78
2020/12/31 01:27:50;;;;;;;28.38;14.05;;;;;;;4.00;87.24;92138.73;1822103;78;21150;-78
2020/12/31 01:30:18;;;;;;;14.93;8.40;;;;;;;4.03;86.51;92152.77;1822367;78;21203;-78
2020/12/31 01:32:46;;;;;;;11.03;5.22;;;;;;;3.91;85.78;92135.64;1821658;78;21208;-78
2020/12/31 01:35:14;;;;;;;6.60;3.92;;;;;;;3.79;87.62;92134.11;1822186;78;21166;-77
2020/12/31 01:37:43;;;;;;;16.80;7.53;;;;;;;3.89;88.37;92145.45;1854937;77;21063;-78
2020/12/31 01:40:11;;;;;;;6.12;4.28;;;;;;;3.94;86.54;92143.53;1838444;77;21150;-81
2020/12/31 01:42:42;;;;;;;9.73;5.08;;;;;;;3.79;86.96;92127.96;1821867;78;21450;-78
2020/12/31 01:45:12;;;;;;;14.68;7.30;;;;;;;3.79;87.75;92134.69;1822552;78;21253;-77
2020/12/31 01:47:40;;;;;;;6.87;4.70;;;;;;;3.92;88.04;92148.54;1823079;78;21170;-77
2020/12/31 01:50:08;;;;;;;11.60;6.08;;;;;;;3.95;87.54;92143.16;1823254;78;21180;-77
2020/12/31 01:52:36;;;;;;;7.12;4.15;;;;;;;4.02;87.71;92139.11;1823234;78;21186;-79
2020/12/31 01:55:06;;;;;;;6.40;4.15;;;;;;;4.11;87.65;92142.77;1822458;78;21648;-77
2020/12/31 01:57:34;;;;;;;7.87;4.22;;;;;;;4.24;88.05;92143.14;1822473;78;21173;-78
2020/12/31 02:00:02;;;;;;;6.50;4.35;;;;;;;4.41;87.89;92145.05;1823151;78;21565;-78
2020/12/31 02:02:32;;;;;;;9.85;4.47;;;;;;;4.53;87.35;92145.22;1820903;78;21162;-78
2020/12/31 02:05:00;;;;;;;7.72;4.60;;;;;;;4.63;87.23;92150.59;1822470;78;21636;-78
2020/12/31 02:07:28;;;;;;;6.92;3.92;;;;;;;4.72;86.63;92159.60;1822824;77;21271;-77
2020/12/31 02:09:57;;;;;;;6.90;3.77;;;;;;;4.75;86.31;92145.37;1822069;78;21186;-77
2020/12/31 02:12:25;;;;;;;6.15;3.80;;;;;;;4.88;86.11;92152.44;1830227;77;21186;-78
2020/12/31 02:14:53;;;;;;;15.08;7.65;;;;;;;5.02;85.60;92163.17;1861908;77;21153;-78
2020/12/31 02:17:21;;;;;;;15.38;5.90;;;;;;;5.03;84.61;92160.66;1823698;77;21261;-77
2020/12/31 02:19:50;;;;;;;12.95;7.30;;;;;;;4.90;84.05;92163.60;1852399;77;21195;-78
2020/12/31 02:22:18;;;;;;;9.75;6.53;;;;;;;4.68;84.58;92162.88;1841096;77;21542;-77
2020/12/31 02:24:46;;;;;;;10.05;5.50;;;;;;;4.68;84.58;92162.88;1822038;78;21150;-78
2020/12/31 02:27:14;;;;;;;8.00;5.12;;;;;;;4.63;84.94;92161.36;1822466;78;21153;-77
2020/12/31 02:29:43;;;;;;;22.20;15.32;;;;;;;4.66;85.17;92168.45;1823327;78;21182;-78
2020/12/31 02:32:11;;;;;;;20.50;13.25;;;;;;;4.65;84.51;92179.05;1822902;78;22068;-78
2020/12/31 02:34:39;;;;;;;15.40;10.68;;;;;;;4.57;84.52;92172.33;1848311;77;21174;-77
2020/12/31 02:37:08;;;;;;;14.15;9.00;;;;;;;4.49;84.55;92171.38;1845456;77;21166;-78
2020/12/31 02:39:36;;;;;;;12.88;7.67;;;;;;;4.37;84.81;92168.52;1830114;77;21673;-78
2020/12/31 02:42:05;;;;;;;16.17;8.95;;;;;;;4.36;85.30;92170.44;1861037;77;21154;-78
2020/12/31 02:44:33;;;;;;;15.13;9.55;;;;;;;4.36;85.36;92172.34;1823343;77;21206;-78
2020/12/31 02:47:01;;;;;;;19.32;10.35;;;;;;;4.29;85.26;92175.83;1852734;77;21198;-77
2020/12/31 02:49:29;;;;;;;15.68;9.53;;;;;;;4.21;85.63;92178.30;1841451;77;21103;-78
2020/12/31 02:51:57;;;;;;;21.35;10.13;;;;;;;4.19;86.02;92165.83;1834331;77;21205;-78
2020/12/31 02:54:26;;;;;;;18.45;10.98;;;;;;;4.21;86.11;92173.50;1857903;77;21166;-78
2020/12/31 02:56:54;;;;;;;22.80;12.00;;;;;;;4.21;86.20;92178.88;1821201;78;21255;-78
2020/12/31 02:59:22;;;;;;;16.48;10.10;;;;;;;4.20;86.21;92171.97;1822972;78;21161;-77
2020/12/31 03:01:54;;;;;;;17.10;9.65;;;;;;;4.17;86.39;92172.73;1822569;78;21161;-77
2020/12/31 03:04:23;;;;;;;14.63;8.68;;;;;;;4.18;86.61;92175.06;1822566;78;21170;-78
2020/12/31 03:06:51;;;;;;;19.42;10.82;;;;;;;4.21;86.61;92170.23;1823166;78;21110;-77
2020/12/31 03:09:20;;;;;;;15.68;8.90;;;;;;;4.23;86.63;92166.59;1822904;78;21175;-78
2020/12/31 03:11:48;;;;;;;16.12;8.33;;;;;;;4.30;86.43;92167.17;1820239;78;21182;-78
2020/12/31 03:14:17;;;;;;;11.97;5.85;;;;;;;4.31;86.24;92172.73;1820625;78;22229;-78
2020/12/31 03:16:45;;;;;;;13.13;5.87;;;;;;;4.31;86.45;92171.39;1820921;78;21139;-78
2020/12/31 03:19:13;;;;;;;8.78;5.35;;;;;;;4.38;86.60;92177.53;1820528;78;21199;-78
2020/12/31 03:21:41;;;;;;;9.43;4.70;;;;;;;4.48;86.43;92177.93;1821291;78;21163;-79
2020/12/31 03:24:12;;;;;;;20.95;11.55;;;;;;;4.54;86.30;92182.52;1821765;78;21211;-78
2020/12/31 03:26:40;;;;;;;20.80;12.58;;;;;;;4.50;85.16;92181.75;1821590;78;21484;-78
2020/12/31 03:29:08;;;;;;;18.10;9.80;;;;;;;4.50;85.16;92181.75;1821531;78;21178;-77
2020/12/31 03:31:36;;;;;;;18.50;10.35;;;;;;;4.39;85.12;92183.69;1821703;78;21194;-78
2020/12/31 03:34:04;;;;;;;15.75;9.63;;;;;;;4.26;85.36;92172.55;1821276;78;21184;-78
2020/12/31 03:36:32;;;;;;;17.23;10.82;;;;;;;4.15;85.89;92178.52;1821383;78;21189;-81
2020/12/31 03:39:00;;;;;;;12.03;6.92;;;;;;;4.10;86.11;92180.25;1821500;78;21186;-77
2020/12/31 03:41:28;;;;;;;14.78;7.80;;;;;;;4.08;86.44;92181.20;1821405;78;21189;-78
2020/12/31 03:43:57;;;;;;;7.53;4.95;;;;;;;4.01;86.70;92182.53;1812510;78;21191;-79
2020/12/31 03:46:25;;;;;;;8.18;4.72;;;;;;;3.99;87.29;92176.20;1749582;80;21222;-79
2020/12/31 03:48:53;;;;;;;13.75;8.43;;;;;;;4.03;87.40;92183.70;1806638;79;21468;-78
2020/12/31 03:51:21;;;;;;;13.85;8.33;;;;;;;4.05;87.27;92180.03;1797104;79;21159;-78
2020/12/31 03:53:49;;;;;;;17.37;10.03;;;;;;;4.01;87.11;92180.61;1768951;79;21196;-77
2020/12/31 03:56:18;;;;;;;21.75;11.88;;;;;;;3.97;87.70;92181.77;1776979;80;21744;-77
2020/12/31 03:58:46;;;;;;;34.08;17.15;;;;;;;3.96;87.48;92185.04;1777427;79;21210;-77
2020/12/31 04:01:14;;;;;;;21.20;10.58;;;;;;;3.85;87.92;92186.37;1777686;79;21214;-78
2020/12/31 04:03:43;;;;;;;19.23;10.90;;;;;;;3.81;88.41;92184.83;1778772;79;21180;-77
2020/12/31 04:06:13;;;;;;;11.43;6.08;;;;;;;3.74;87.88;92188.27;1796963;79;21429;-77
2020/12/31 04:08:41;;;;;;;10.60;5.85;;;;;;;3.70;88.40;92180.77;1738458;79;21200;-77
2020/12/31 04:11:09;;;;;;;8.00;4.55;;;;;;;3.67;88.68;92176.16;1761264;80;22114;-78
2020/12/31 04:13:38;;;;;;;6.42;4.33;;;;;;;3.70;88.81;92180.02;1788206;78;21201;-78
2020/12/31 04:16:06;;;;;;;21.10;12.18;;;;;;;3.74;88.85;92185.58;1784092;80;21301;-77
2020/12/31 04:18:34;;;;;;;17.87;10.20;;;;;;;3.78;88.63;92178.28;1755637;81;21467;-78
2020/12/31 04:21:02;;;;;;;35.43;18.47;;;;;;;3.80;88.32;92185.95;1825464;78;21166;-78
2020/12/31 04:23:30;;;;;;;15.65;9.40;;;;;;;3.82;88.21;92189.81;1800238;77;22580;-78
2020/12/31 04:25:59;;;;;;;28.25;14.53;;;;;;;3.80;88.24;92192.68;1772101;80;21183;-77
2020/12/31 04:28:27;;;;;;;21.87;12.33;;;;;;;3.82;88.38;92187.70;1764437;80;21452;-77
2020/12/31 04:30:56;;;;;;;8.00;6.17;;;;;;;3.86;88.38;92195.20;1790249;78;21477;-77
2020/12/31 04:33:24;;;;;;;16.52;10.60;;;;;;;3.88;88.24;92196.36;1829706;77;21155;-77
2020/12/31 04:35:52;;;;;;;9.03;4.97;;;;;;;3.90;88.00;92192.70;1825363;77;21205;-77
2020/12/31 04:38:21;;;;;;;8.13;4.78;;;;;;;3.91;87.83;92190.78;1809118;78;21187;-78
2020/12/31 04:40:49;;;;;;;6.10;3.70;;;;;;;3.84;87.96;92197.52;1764338;80;21461;-77
2020/12/31 04:43:17;;;;;;;7.65;4.20;;;;;;;3.80;88.25;92202.89;1746775;79;21255;-77
2020/12/31 04:45:46;;;;;;;10.30;5.70;;;;;;;3.84;88.34;92203.66;1809187;79;21143;-77
2020/12/31 04:48:40;;;;;;;11.20;5.65;;;;;;;3.89;88.17;92198.47;1733575;79;21649;-78
2020/12/31 04:51:11;;;;;;;8.20;4.58;;;;;;;3.88;87.96;92199.05;1818676;78;21198;-79
2020/12/31 04:53:39;;;;;;;7.72;4.00;;;;;;;3.86;88.06;92196.55;1805829;78;21682;-79
2020/12/31 04:56:07;;;;;;;15.15;8.25;;;;;;;3.83;88.15;92207.48;1792909;79;21645;-79
2020/12/31 04:58:35;;;;;;;13.65;8.00;;;;;;;3.81;88.14;92211.14;1784096;79;21183;-79
2020/12/31 05:01:03;;;;;;;27.22;13.65;;;;;;;3.71;87.57;92210.53;1810019;79;21189;-79
2020/12/31 05:03:32;;;;;;;21.62;13.05;;;;;;;3.64;87.65;92205.91;1766741;81;21509;-79
2020/12/31 05:06:00;;;;;;;12.47;7.15;;;;;;;3.55;87.94;92216.27;1799967;79;21108;-79
2020/12/31 05:08:29;;;;;;;8.23;4.95;;;;;;;3.51;88.51;92211.45;1780765;80;21211;-79
2020/12/31 05:11:00;;;;;;;5.42;3.92;;;;;;;3.52;88.66;92218.94;1838224;77;21123;-79
2020/12/31 05:13:28;;;;;;;5.75;4.00;;;;;;;3.52;88.71;92218.36;1806000;78;21283;-79
2020/12/31 05:15:57;;;;;;;7.35;4.03;;;;;;;3.52;88.76;92222.39;1811159;79;21712;-78
2020/12/31 05:18:26;;;;;;;6.12;5.15;;;;;;;3.55;88.81;92224.91;1843260;77;21194;-79
2020/12/31 05:20:56;;;;;;;17.05;9.35;;;;;;;3.58;88.84;92220.88;1797042;77;21211;-79
2020/12/31 05:23:27;;;;;;;20.25;11.85;;;;;;;3.61;88.86;92224.71;1811515;78;21194;-79
2020/12/31 05:25:57;;;;;;;16.12;9.38;;;;;;;3.65;89.14;92222.25;1800000;79;21191;-79
2020/12/31 05:28:32;;;;;;;22.65;14.95;;;;;;;3.73;89.22;92227.07;1809108;79;21583;-79
2020/12/31 05:31:11;;;;;;;22.87;14.40;;;;;;;3.82;89.10;92235.53;1852414;77;21167;-79
2020/12/31 05:33:40;;;;;;;28.47;16.82;;;;;;;3.91;88.83;92232.46;1804024;79;21398;-79
2020/12/31 05:36:26;;;;;;;46.77;37.25;;;;;;;3.93;88.46;92236.13;1780598;78;21163;-79
2020/12/31 05:39:02;;;;;;;21.60;13.32;;;;;;;3.94;88.33;92233.05;1795408;79;21194;-80
2020/12/31 05:41:32;;;;;;;16.50;9.75;;;;;;;3.97;88.17;92230.95;1790899;79;21381;-79
2020/12/31 05:44:06;;;;;;;16.52;9.60;;;;;;;4.01;87.89;92232.30;1816407;78;21187;-79
2020/12/31 05:46:36;;;;;;;25.60;15.40;;;;;;;4.03;87.73;92228.09;1837818;77;21940;-79
2020/12/31 05:49:10;;;;;;;24.57;15.53;;;;;;;4.03;87.62;92230.78;1832553;78;21076;-79
2020/12/31 05:51:40;;;;;;;30.95;18.82;;;;;;;4.01;87.51;92229.03;1808028;78;22307;-79
2020/12/31 05:54:10;;;;;;;50.98;31.55;;;;;;;3.94;87.61;92234.97;1831141;77;21198;-79
2020/12/31 05:56:42;;;;;;;47.17;29.00;;;;;;;3.84;87.70;92246.69;1806241;77;21214;-78
2020/12/31 05:59:28;;;;;;;38.73;23.07;;;;;;;3.81;87.80;92245.33;1777034;80;21234;-78
2020/12/31 06:01:59;;;;;;;34.03;19.50;;;;;;;3.78;88.09;92240.71;1808547;78;21170;-79
2020/12/31 06:04:46;;;;;;;33.53;19.35;;;;;;;3.80;88.27;92237.05;1814497;78;21361;-79
2020/12/31 06:07:27;;;;;;;33.28;20.23;;;;;;;3.85;88.35;92246.11;1792257;78;21170;-79
2020/12/31 06:10:04;;;;;;;27.25;18.40;;;;;;;3.87;88.20;92251.86;1807393;79;21187;-79
2020/12/31 06:12:59;;;;;;;22.87;15.35;;;;;;;3.83;88.31;92245.12;1805892;79;21183;-79
2020/12/31 06:15:37;;;;;;;21.17;13.90;;;;;;;3.86;88.51;92242.26;1788273;78;21629;-79
2020/12/31 06:18:06;;;;;;;20.15;12.95;;;;;;;3.88;88.47;92238.62;1768520;78;21192;-80
2020/12/31 06:20:39;;;;;;;20.12;13.10;;;;;;;3.90;88.46;92244.38;1786877;79;21191;-79
2020/12/31 06:23:15;;;;;;;23.52;13.15;;;;;;;3.91;88.54;92251.29;1805960;78;21659;-79
2020/12/31 06:25:46;;;;;;;21.05;13.75;;;;;;;3.91;88.53;92255.33;1785226;80;21152;-79
2020/12/31 06:28:19;;;;;;;25.27;15.98;;;;;;;3.90;88.56;92247.06;1781637;80;21195;-80
2020/12/31 06:30:54;;;;;;;23.15;14.87;;;;;;;3.88;88.66;92244.01;1785361;80;21632;-79
2020/12/31 06:33:44;;;;;;;30.70;21.23;;;;;;;3.90;88.70;92239.77;1782032;80;21211;-79
2020/12/31 06:36:13;;;;;;;37.33;21.73;;;;;;;3.90;88.68;92245.72;1784214;79;21164;-80
2020/12/31 06:38:47;;;;;;;29.90;21.68;;;;;;;3.87;88.65;92245.93;1783154;80;21662;-79
2020/12/31 06:41:38;;;;;;;30.70;24.27;;;;;;;3.82;88.66;92242.83;1780304;80;21195;-79
2020/12/31 06:44:13;;;;;;;38.48;27.02;;;;;;;3.79;88.83;92240.89;1787486;79;22113;-79
2020/12/31 06:46:46;;;;;;;35.55;25.85;;;;;;;3.77;88.91;92243.21;1777940;80;21183;-79
2020/12/31 06:49:14;;;;;;;57.05;42.85;;;;;;;3.74;89.01;92236.67;1803550;79;21178;-79
2020/12/31 06:51:43;;;;;;;60.00;40.60;;;;;;;3.73;88.93;92241.86;1779967;79;21203;-79
2020/12/31 06:54:11;;;;;;;52.45;39.15;;;;;;;3.65;88.89;92238.95;1799000;78;21159;-79
2020/12/31 06:56:51;;;;;;;49.20;31.65;;;;;;;3.58;89.05;92232.98;1818530;78;21508;-80
2020/12/31 06:59:32;;;;;;;37.80;25.62;;;;;;;3.54;89.31;92230.86;1813208;78;21567;-79
2020/12/31 07:02:02;;;;;;;29.57;19.12;;;;;;;3.50;89.54;92230.62;1803931;79;21210;-79
2020/12/31 07:04:35;;;;;;;36.28;22.50;;;;;;;3.51;89.86;92236.22;1777907;79;21407;-79
2020/12/31 07:07:26;;;;;;;37.65;23.20;;;;;;;3.52;89.91;92242.55;1791073;78;21256;-79
2020/12/31 07:09:59;;;;;;;32.25;22.45;;;;;;;3.55;90.03;92237.00;1773871;79;21429;-79
2020/12/31 07:12:41;;;;;;;35.20;20.97;;;;;;;3.58;89.97;92229.53;1767972;80;21178;-79
2020/12/31 07:15:09;;;;;;;33.65;21.45;;;;;;;3.60;90.01;92233.94;1778383;80;21634;-79
2020/12/31 07:17:41;;;;;;;34.92;22.77;;;;;;;3.57;89.90;92231.45;1791258;78;21139;-79
2020/12/31 07:20:15;;;;;;;31.42;22.62;;;;;;;3.56;89.94;92232.58;1784870;80;21184;-80
2020/12/31 07:22:44;;;;;;;30.10;21.37;;;;;;;3.54;90.02;92228.75;1768822;81;22426;-79
2020/12/31 07:25:15;;;;;;;36.63;25.65;;;;;;;3.53;90.31;92232.56;1799811;79;21124;-79
2020/12/31 07:27:50;;;;;;;40.33;27.82;;;;;;;3.55;90.31;92232.39;1795060;79;21107;-79
2020/12/31 07:30:19;;;;;;;40.67;28.30;;;;;;;3.57;90.35;92233.34;1791968;80;21213;-79
2020/12/31 07:33:01;;;;;;;38.53;26.27;;;;;;;3.55;90.23;92228.36;1756458;80;21115;-79
2020/12/31 07:35:42;;;;;;;38.75;27.02;;;;;;;3.55;90.33;92220.88;1783218;79;22628;-79
2020/12/31 07:38:15;;;;;;;36.70;25.50;;;;;;;3.52;90.44;92227.77;1801313;79;21195;-79
2020/12/31 07:40:50;;;;;;;38.70;27.58;;;;;;;3.48;90.51;92223.53;1800680;79;21174;-80
2020/12/31 07:43:26;;;;;;;61.18;40.55;;;;;;;3.46;90.89;92223.92;1804083;79;21147;-79
2020/12/31 07:45:58;;;;;;;54.18;38.48;;;;;;;3.51;91.06;92226.81;1806325;79;21163;-80
2020/12/31 07:48:27;;;;;;;40.67;28.15;;;;;;;3.58;91.06;92232.22;1805366;79;21655;-80
2020/12/31 07:50:59;;;;;;;45.48;27.90;;;;;;;3.62;90.95;92220.89;1784243;80;21211;-79
2020/12/31 07:53:29;;;;;;;43.20;28.17;;;;;;;3.64;90.75;92218.58;1809037;79;21592;-79
2020/12/31 07:55:59;;;;;;;36.33;26.65;;;;;;;3.64;90.75;92220.69;1806174;79;21429;-80
2020/12/31 07:58:28;;;;;;;40.17;25.82;;;;;;;3.67;90.80;92225.89;1806084;79;21356;-80
2020/12/31 08:01:03;;;;;;;36.05;26.17;;;;;;;3.69;90.83;92215.54;1784235;80;22239;-80
2020/12/31 08:03:32;;;;;;;34.53;24.57;;;;;;;3.75;90.95;92213.23;1808763;79;21223;-81
2020/12/31 08:06:09;;;;;;;33.13;21.70;;;;;;;3.83;90.81;92212.86;1805882;79;21178;-79
2020/12/31 08:08:37;;;;;;;23.05;17.55;;;;;;;3.85;90.59;92209.22;1784094;80;21488;-78
2020/12/31 08:11:08;;;;;;;21.62;16.05;;;;;;;3.85;90.54;92209.80;1808410;79;21172;-78
2020/12/31 08:13:36;;;;;;;23.15;17.65;;;;;;;3.85;90.62;92211.15;1806539;79;21218;-79
2020/12/31 08:16:11;;;;;;;24.30;17.82;;;;;;;3.86;90.57;92212.67;1760758;80;21127;-78
2020/12/31 08:18:39;;;;;;;27.42;17.87;;;;;;;3.85;90.43;92215.18;1767633;78;21118;-79
2020/12/31 08:21:07;;;;;;;23.27;16.50;;;;;;;3.86;90.64;92216.13;1824321;77;21105;-79
2020/12/31 08:23:39;;;;;;;24.87;15.13;;;;;;;3.92;90.70;92215.78;1820258;78;21826;-79
2020/12/31 08:26:10;;;;;;;29.25;16.95;;;;;;;3.99;90.58;92217.13;1784342;78;21507;-80
2020/12/31 08:28:38;;;;;;;23.00;15.88;;;;;;;4.01;90.37;92214.81;1820281;78;21241;-78
2020/12/31 08:31:12;;;;;;;19.75;12.95;;;;;;;4.02;90.40;92217.69;1820264;78;21150;-78
2020/12/31 08:33:40;;;;;;;21.25;13.62;;;;;;;4.01;90.25;92219.62;1821778;78;21598;-81
2020/12/31 08:36:09;;;;;;;20.37;13.75;;;;;;;4.03;90.34;92221.94;1788391;78;21107;-82
2020/12/31 08:38:39;;;;;;;23.60;15.63;;;;;;;4.02;90.32;92221.72;1834276;78;21343;-81
2020/12/31 08:41:08;;;;;;;23.67;15.85;;;;;;;4.03;90.34;92223.28;1821786;78;21162;-81
2020/12/31 08:43:39;;;;;;;24.32;15.90;;;;;;;4.01;90.27;92219.62;1857620;77;21324;-79
2020/12/31 08:46:11;;;;;;;30.20;18.87;;;;;;;4.02;90.32;92225.77;1791702;78;21134;-77
2020/12/31 08:48:39;;;;;;;29.85;19.98;;;;;;;4.00;90.28;92224.05;1819768;78;22255;-81
2020/12/31 08:51:13;;;;;;;27.67;18.67;;;;;;;4.00;90.33;92221.35;1821221;78;21417;-79
2020/12/31 08:53:57;;;;;;;25.45;17.98;;;;;;;3.99;90.32;92217.13;1815672;78;21690;-80
2020/12/31 08:56:27;;;;;;;34.40;20.95;;;;;;;4.00;90.36;92216.74;1820709;78;21118;-80
2020/12/31 08:59:12;;;;;;;44.25;26.77;;;;;;;3.99;90.39;92215.20;1820040;78;21111;-80
2020/12/31 09:01:43;;;;;;;40.23;30.17;;;;;;;3.99;90.45;92213.86;1836334;77;21108;-80
2020/12/31 09:04:19;;;;;;;30.05;22.32;;;;;;;3.98;90.73;92206.92;1766062;78;21267;-80
2020/12/31 09:06:57;;;;;;;28.70;19.40;;;;;;;3.98;90.73;92206.92;1817586;77;21134;-79
2020/12/31 09:09:28;;;;;;;30.37;21.42;;;;;;;3.99;90.83;92200.42;1784670;78;21102;-80
2020/12/31 09:12:01;;;;;;;28.87;22.00;;;;;;;4.00;90.94;92200.60;1820145;78;21586;-80
2020/12/31 09:14:30;;;;;;;37.25;26.07;;;;;;;4.05;91.17;92187.34;1819875;78;21099;-80
2020/12/31 09:16:59;;;;;;;29.77;23.30;;;;;;;4.11;91.19;92186.58;1750487;80;22175;-80
2020/12/31 09:19:28;;;;;;;37.53;23.45;;;;;;;4.20;91.03;92184.84;1775154;80;21175;-81
2020/12/31 09:21:56;;;;;;;33.02;21.85;;;;;;;4.23;90.87;92184.66;1799047;78;21127;-79
2020/12/31 09:24:25;;;;;;;33.30;24.47;;;;;;;4.24;90.82;92178.12;1826601;77;21108;-80
2020/12/31 09:26:58;;;;;;;32.38;22.82;;;;;;;4.27;90.95;92175.42;1797750;78;21128;-82
2020/12/31 09:29:28;;;;;;;27.27;19.60;;;;;;;4.27;90.82;92171.39;1817625;78;21138;-81
2020/12/31 09:31:57;;;;;;;28.42;19.12;;;;;;;4.30;91.23;92157.17;1779084;77;21443;-80
2020/12/31 09:34:25;;;;;;;25.37;18.70;;;;;;;4.30;91.23;92157.17;1820668;78;21114;-80
2020/12/31 09:37:00;;;;;;;28.38;18.17;;;;;;;4.32;90.99;92153.50;1821295;77;21078;-79
2020/12/31 09:39:28;;;;;;;34.95;21.42;;;;;;;4.37;91.11;92149.67;1821257;78;21115;-79
2020/12/31 09:41:57;;;;;;;28.45;17.48;;;;;;;4.49;90.79;92144.47;1821512;78;21198;-79
2020/12/31 09:44:25;;;;;;;36.85;23.27;;;;;;;4.49;90.79;92144.47;1822184;78;21678;-81
2020/12/31 09:46:53;;;;;;;37.98;25.70;;;;;;;4.49;90.70;92144.47;1822332;78;21094;-81
2020/12/31 09:49:21;;;;;;;31.48;22.27;;;;;;;4.49;90.68;92142.53;1821606;77;21090;-78
2020/12/31 09:51:50;;;;;;;27.05;19.77;;;;;;;4.50;90.90;92141.38;1822025;78;21173;-80
2020/12/31 09:54:19;;;;;;;30.12;21.77;;;;;;;4.54;90.79;92140.02;1821613;78;21242;-78
2020/12/31 09:56:47;;;;;;;27.95;22.73;;;;;;;4.57;90.82;92140.59;1822031;78;21126;-78
2020/12/31 09:59:27;;;;;;;33.53;24.23;;;;;;;4.57;90.82;92140.59;1785581;79;21218;-81
2020/12/31 10:01:55;;;;;;;28.70;22.95;;;;;;;4.60;90.58;92150.02;1816047;77;21130;-81
2020/12/31 10:04:24;;;;;;;28.07;20.82;;;;;;;4.63;90.53;92145.20;1821168;78;21179;-79
2020/12/31 10:06:52;;;;;;;26.52;19.65;;;;;;;4.66;90.50;92134.80;1819535;78;21183;-78
2020/12/31 10:09:20;;;;;;;29.35;21.12;;;;;;;4.69;90.31;92134.79;1819909;78;21186;-80
2020/12/31 10:11:48;;;;;;;25.90;20.02;;;;;;;4.70;90.42;92116.16;1820068;78;21208;-79
2020/12/31 10:14:16;;;;;;;27.52;20.52;;;;;;;4.71;90.29;92117.68;1819986;78;21627;-80
2020/12/31 10:16:45;;;;;;;27.27;19.57;;;;;;;4.79;90.13;92109.00;1819001;78;21174;-79
2020/12/31 10:19:13;;;;;;;29.18;21.62;;;;;;;4.79;90.13;92109.00;1819482;78;21988;-80
2020/12/31 10:21:47;;;;;;;28.55;20.45;;;;;;;4.80;90.04;92102.45;1820565;78;21178;-79
2020/12/31 10:24:16;;;;;;;34.33;20.90;;;;;;;4.84;90.18;92098.58;1785546;78;21484;-80
2020/12/31 10:26:45;;;;;;;31.50;21.77;;;;;;;4.90;89.93;92100.30;1820316;78;21224;-80
2020/12/31 10:29:16;;;;;;;32.33;24.05;;;;;;;4.90;89.76;92096.27;1820534;78;21178;-79
2020/12/31 10:31:50;;;;;;;30.12;21.07;;;;;;;4.95;89.95;92082.37;1820430;78;21480;-79
2020/12/31 10:34:19;;;;;;;27.15;19.50;;;;;;;4.95;89.95;92082.37;1773668;78;21641;-78
2020/12/31 10:36:52;;;;;;;27.77;19.35;;;;;;;5.01;89.71;92076.02;1812430;78;21265;-78
2020/12/31 10:39:21;;;;;;;28.42;18.55;;;;;;;5.06;89.62;92074.25;1850438;77;21158;-78
2020/12/31 10:41:50;;;;;;;26.60;17.80;;;;;;;5.09;89.67;92070.19;1838776;78;21184;-79
2020/12/31 10:44:19;;;;;;;31.25;18.23;;;;;;;5.18;89.78;92066.30;1801780;77;21424;-79
2020/12/31 10:46:55;;;;;;;23.95;16.60;;;;;;;5.23;89.52;92053.77;1747258;80;21184;-79
2020/12/31 10:49:24;;;;;;;22.17;16.32;;;;;;;5.31;89.62;92051.98;1764048;79;21195;-79
2020/12/31 10:51:52;;;;;;;26.23;17.15;;;;;;;5.41;89.27;92043.63;1821963;78;21166;-78
2020/12/31 10:54:20;;;;;;;24.37;16.93;;;;;;;5.50;88.87;92036.45;1821821;78;21187;-80
2020/12/31 10:56:48;;;;;;;22.45;17.77;;;;;;;5.53;88.54;92036.43;1822329;78;21259;-80
2020/12/31 10:59:18;;;;;;;24.80;16.42;;;;;;;5.58;88.40;92027.14;1822211;78;21172;-80
2020/12/31 11:01:52;;;;;;;23.80;16.80;;;;;;;5.66;88.01;92030.55;1821552;77;21496;-81
2020/12/31 11:04:23;;;;;;;22.27;16.55;;;;;;;5.73;87.89;92025.11;1820457;78;21170;-81
2020/12/31 11:06:51;;;;;;;21.17;14.10;;;;;;;5.80;87.66;92023.70;1820603;78;21155;-81
2020/12/31 11:09:19;;;;;;;22.87;14.53;;;;;;;5.92;87.83;92021.87;1820803;78;22228;-81
2020/12/31 11:11:47;;;;;;;18.12;14.03;;;;;;;6.03;87.32;92017.16;1820400;78;22078;-81
2020/12/31 11:14:15;;;;;;;20.05;12.70;;;;;;;6.11;86.62;92006.30;1820503;78;21224;-80
2020/12/31 11:16:53;;;;;;;15.05;10.35;;;;;;;6.18;86.19;92002.17;1820322;78;21190;-81
2020/12/31 11:19:21;;;;;;;14.53;10.43;;;;;;;6.21;85.59;91991.34;1820976;78;21167;-82
2020/12/31 11:21:50;;;;;;;13.25;10.23;;;;;;;6.19;84.73;91992.91;1820394;78;21231;-81
2020/12/31 11:24:18;;;;;;;14.80;10.70;;;;;;;6.12;84.29;91989.69;1820302;78;21220;-81
2020/12/31 11:26:46;;;;;;;17.82;10.88;;;;;;;6.03;84.06;91985.36;1820252;78;21463;-81
2020/12/31 11:29:14;;;;;;;17.30;10.98;;;;;;;5.93;84.13;91989.69;1819496;78;21127;-81
2020/12/31 11:31:43;;;;;;;15.75;10.28;;;;;;;5.85;84.09;91984.14;1820082;78;21420;-83
2020/12/31 11:34:12;;;;;;;13.93;9.58;;;;;;;5.75;83.98;91984.41;1814141;77;21192;-82
2020/12/31 11:36:43;;;;;;;13.88;9.43;;;;;;;5.67;84.06;91980.25;1820231;78;21184;-81
2020/12/31 11:39:11;;;;;;;16.87;9.48;;;;;;;5.62;84.16;91975.30;1820578;78;21142;-81
2020/12/31 11:41:39;;;;;;;20.97;13.30;;;;;;;5.57;84.24;91974.39;1820662;78;21720;-81
2020/12/31 11:44:07;;;;;;;16.40;10.28;;;;;;;5.56;84.85;91969.55;1820161;78;21181;-82